createdAt,value
2023-01-30T00:00:01.667Z,2.67
2023-01-30T00:05:02.235Z,2.65
2023-01-30T00:10:02.254Z,2.66
2023-01-30T00:15:02.214Z,2.66
2023-01-30T00:25:01.650Z,2.93
2023-01-30T00:30:03.540Z,3.09
2023-01-30T00:35:01.679Z,3.28
2023-01-30T00:40:01.386Z,3.33
2023-01-30T00:45:01.788Z,3.4
2023-01-30T00:50:01.955Z,3.43
2023-01-30T00:55:02.108Z,3.47
2023-01-30T01:00:01.591Z,3.5
2023-01-30T01:05:01.450Z,3.5
2023-01-30T01:10:02.242Z,3.48
2023-01-30T01:15:01.804Z,3.47
2023-01-30T01:20:02.222Z,3.46
2023-01-30T01:25:01.435Z,3.38
2023-01-30T01:30:02.501Z,3.33
2023-01-30T01:35:02.064Z,3.25
2023-01-30T01:40:01.555Z,3.2
2023-01-30T01:45:02.238Z,3.12
2023-01-30T01:50:01.497Z,3.12
2023-01-30T01:55:01.764Z,3.11
2023-01-30T02:00:01.989Z,3.06
2023-01-30T02:05:02.229Z,3.09
2023-01-30T02:10:01.735Z,3.11
2023-01-30T02:15:02.134Z,3.12
2023-01-30T02:20:01.446Z,3.13
2023-01-30T02:25:01.782Z,3.13
2023-01-30T02:30:02.347Z,3.24
2023-01-30T02:35:01.920Z,3.26
2023-01-30T02:40:01.342Z,3.32
2023-01-30T02:45:01.819Z,3.42
2023-01-30T02:50:01.976Z,3.48
2023-01-30T02:55:02.087Z,3.56
2023-01-30T03:00:01.269Z,3.63
2023-01-30T03:05:01.741Z,3.72
2023-01-30T03:10:02.110Z,3.86
2023-01-30T03:15:02.048Z,3.98
2023-01-30T03:20:02.163Z,4.06
2023-01-30T03:25:01.471Z,4.05
2023-01-30T03:30:02.030Z,4.05
2023-01-30T03:35:01.654Z,4.07
2023-01-30T03:40:01.579Z,4.04
2023-01-30T03:45:01.791Z,4.04
2023-01-30T03:50:01.422Z,4.05
2023-01-30T03:55:01.762Z,4.07
2023-01-30T04:00:01.863Z,4.05
2023-01-30T04:05:01.481Z,4.05
2023-01-30T04:10:01.787Z,4.07
2023-01-30T04:15:02.217Z,4.07
2023-01-30T04:20:02.271Z,4.38
2023-01-30T04:25:02.152Z,4.51
2023-01-30T04:30:02.135Z,4.61
2023-01-30T04:35:02.176Z,4.63
2023-01-30T04:40:01.992Z,4.71
2023-01-30T04:45:01.586Z,4.72
2023-01-30T04:50:01.682Z,4.75
2023-01-30T04:55:02.217Z,4.75
2023-01-30T05:00:01.807Z,4.77
2023-01-30T05:05:01.645Z,4.77
2023-01-30T05:10:01.758Z,4.71
2023-01-30T05:15:01.716Z,4.71
2023-01-30T05:20:01.979Z,4.76
2023-01-30T05:25:02.199Z,4.74
2023-01-30T05:30:02.056Z,4.76
2023-01-30T05:35:01.475Z,4.79
2023-01-30T05:40:01.583Z,4.83
2023-01-30T05:45:02.182Z,4.8
2023-01-30T05:50:01.689Z,4.76
2023-01-30T05:55:02.122Z,4.75
2023-01-30T06:00:01.590Z,4.71
2023-01-30T06:05:01.992Z,4.64
2023-01-30T06:10:02.515Z,4.62
2023-01-30T06:15:01.470Z,4.58
2023-01-30T06:20:01.547Z,4.63
2023-01-30T06:25:02.232Z,4.63
2023-01-30T06:30:01.842Z,4.6
2023-01-30T06:35:01.634Z,4.63
2023-01-30T06:40:02.279Z,4.63
2023-01-30T06:45:02.185Z,4.6
2023-01-30T06:50:01.903Z,4.64
2023-01-30T06:55:02.012Z,4.65
2023-01-30T07:00:01.966Z,4.71
2023-01-30T07:05:02.017Z,4.6
2023-01-30T07:10:08.227Z,4.63
2023-01-30T07:15:01.741Z,4.76
2023-01-30T07:20:01.620Z,4.78
2023-01-30T07:25:01.730Z,4.88
2023-01-30T07:30:01.724Z,4.74
2023-01-30T07:35:04.265Z,4.72
2023-01-30T08:30:02.175Z,5.11
2023-01-30T08:35:01.235Z,5.18
2023-01-30T08:40:01.296Z,5.17
2023-01-30T08:45:01.430Z,5.17
2023-01-30T08:50:01.512Z,5.25
2023-01-30T08:55:01.576Z,5.42
2023-01-30T09:00:01.650Z,5.65
2023-01-30T09:05:01.652Z,5.61
2023-01-30T09:10:02.123Z,5.51
2023-01-30T09:15:02.190Z,5.41
2023-01-30T09:20:02.080Z,5.47
2023-01-30T09:25:01.807Z,5.6
2023-01-30T09:30:01.679Z,5.89
2023-01-30T09:35:01.615Z,6.05
2023-01-30T09:40:01.497Z,6.04
2023-01-30T09:45:01.591Z,6.06
2023-01-30T09:50:01.576Z,6.16
2023-01-30T09:55:01.475Z,6.12
2023-01-30T10:00:01.614Z,6.24
2023-01-30T10:05:02.525Z,6.4
2023-01-30T10:10:01.738Z,6.56
2023-01-30T10:15:01.293Z,6.76
2023-01-30T10:20:01.509Z,6.79
2023-01-30T10:25:01.646Z,6.82
2023-01-30T10:30:01.685Z,6.76
2023-01-30T10:35:01.860Z,6.85
2023-01-30T10:40:02.137Z,7
2023-01-30T10:45:01.313Z,7.1
2023-01-30T10:50:01.581Z,7.12
2023-01-30T10:55:01.723Z,6.94
2023-01-30T11:00:01.921Z,6.85
2023-01-30T11:05:02.122Z,6.82
2023-01-30T11:10:02.094Z,6.93
2023-01-30T11:15:02.224Z,6.87
2023-01-30T11:20:01.494Z,7.01
2023-01-30T11:25:02.324Z,6.95
2023-01-30T11:30:02.112Z,6.95
2023-01-30T11:35:02.176Z,6.89
2023-01-30T11:40:01.744Z,6.85
2023-01-30T11:45:16.852Z,6.82
2023-01-30T11:50:03.665Z,6.76
2023-01-30T11:55:01.671Z,6.72
2023-01-30T12:00:01.771Z,6.72
2023-01-30T12:05:01.613Z,6.68
2023-01-30T12:10:01.788Z,6.7
2023-01-30T12:15:01.807Z,6.82
2023-01-30T12:20:02.017Z,6.83
2023-01-30T12:25:01.928Z,6.99
2023-01-30T12:30:01.831Z,7.02
2023-01-30T12:35:02.019Z,6.98
2023-01-30T12:40:01.892Z,6.88
2023-01-30T12:45:01.854Z,6.75
2023-01-30T12:50:01.802Z,6.66
2023-01-30T12:55:01.801Z,6.56
2023-01-30T13:00:02.114Z,6.52
2023-01-30T13:05:04.284Z,6.45
2023-01-30T13:10:02.199Z,6.38
2023-01-30T13:15:01.925Z,6.31
2023-01-30T13:20:01.941Z,6.31
2023-01-30T13:25:01.855Z,6.38
2023-01-30T13:30:02.004Z,6.45
2023-01-30T13:35:02.077Z,6.53
2023-01-30T13:40:01.699Z,6.59
2023-01-30T13:45:01.640Z,6.59
2023-01-30T13:50:01.408Z,6.65
2023-01-30T13:55:02.002Z,6.6
2023-01-30T14:00:02.004Z,6.57
2023-01-30T14:05:02.038Z,6.51
2023-01-30T14:10:01.512Z,6.51
2023-01-30T14:15:01.647Z,6.49
2023-01-30T14:20:01.762Z,6.49
2023-01-30T14:25:01.631Z,6.48
2023-01-30T14:30:01.820Z,6.5
2023-01-30T14:35:01.755Z,6.49
2023-01-30T14:40:01.786Z,6.5
2023-01-30T14:45:01.770Z,6.49
2023-01-30T14:50:01.488Z,6.41
2023-01-30T14:55:01.462Z,6.43
2023-01-30T15:00:17.636Z,6.4
2023-01-30T15:05:01.607Z,6.42
2023-01-30T15:10:01.776Z,6.42
2023-01-30T15:20:01.857Z,6.11
2023-01-30T15:25:01.837Z,6.14
2023-01-30T15:30:02.038Z,6.21
2023-01-30T15:35:02.120Z,6.22
2023-01-30T15:40:02.215Z,6.16
2023-01-30T15:45:01.963Z,6.21
2023-01-30T15:50:01.770Z,6.15
2023-01-30T15:55:01.748Z,6.13
2023-01-30T16:00:02.243Z,6.06
2023-01-30T16:05:02.052Z,6.01
2023-01-30T16:10:07.573Z,6.05
2023-01-30T16:15:17.541Z,6.01
2023-01-30T16:20:02.318Z,6.01
2023-01-30T16:25:01.909Z,5.96
2023-01-30T16:30:01.921Z,5.95
2023-01-30T16:35:01.414Z,5.92
2023-01-30T16:40:01.743Z,5.77
2023-01-30T16:45:01.695Z,5.66
2023-01-30T16:50:01.757Z,5.54
2023-01-30T16:55:01.792Z,5.49
2023-01-30T17:00:01.795Z,5.41
2023-01-30T17:05:01.800Z,5.53
2023-01-30T17:10:01.959Z,5.53
2023-01-30T17:15:02.247Z,5.5
2023-01-30T17:20:01.933Z,5.42
2023-01-30T17:25:01.917Z,5.36
2023-01-30T17:30:01.928Z,5.33
2023-01-30T17:35:01.744Z,5.36
2023-01-30T17:40:01.806Z,5.34
2023-01-30T17:45:01.726Z,5.31
2023-01-30T17:50:01.827Z,5.27
2023-01-30T17:55:02.132Z,5.3
2023-01-30T18:00:01.780Z,5.27
2023-01-30T18:05:01.881Z,5.23
2023-01-30T18:10:01.953Z,5.25
2023-01-30T18:15:01.871Z,5.26
2023-01-30T18:20:01.910Z,5.23
2023-01-30T18:25:01.884Z,5.26
2023-01-30T18:30:01.756Z,5.27
2023-01-30T18:35:01.359Z,5.26
2023-01-30T18:40:01.443Z,5.24
2023-01-30T18:45:01.978Z,5.15
2023-01-30T18:50:01.415Z,5.08
2023-01-30T18:55:01.679Z,5
2023-01-30T19:00:01.735Z,4.97
2023-01-30T19:05:01.574Z,4.94
2023-01-30T19:10:01.653Z,5.04
2023-01-30T19:15:01.630Z,5.06
2023-01-30T19:20:01.636Z,5.13
2023-01-30T19:25:01.744Z,5.12
2023-01-30T19:30:01.896Z,5.13
2023-01-30T19:35:01.896Z,5.16
2023-01-30T19:40:01.974Z,5.24
2023-01-30T19:45:01.966Z,5.23
2023-01-30T19:50:01.667Z,5.2
2023-01-30T19:55:01.687Z,5.15
2023-01-30T20:00:01.662Z,5.05
2023-01-30T20:05:02.039Z,5.04
2023-01-30T20:10:02.119Z,5.06
2023-01-30T20:15:02.201Z,5.07
2023-01-30T20:20:01.963Z,5.12
2023-01-30T20:25:02.044Z,5.13
2023-01-30T20:30:02.077Z,5.18
2023-01-30T20:35:02.125Z,5.26
2023-01-30T20:40:01.905Z,5.22
2023-01-30T20:45:01.657Z,5.12
2023-01-30T20:50:01.841Z,5.11
2023-01-30T20:55:01.687Z,5.07
2023-01-30T21:00:02.168Z,5.07
2023-01-30T21:05:01.662Z,5.04
2023-01-30T21:10:02.365Z,5.02
2023-01-30T21:15:01.802Z,4.95
2023-01-30T21:20:01.762Z,4.94
2023-01-30T21:25:01.606Z,4.87
2023-01-30T21:30:02.018Z,4.82
2023-01-30T21:35:01.789Z,4.76
2023-01-30T21:40:02.026Z,4.74
2023-01-30T21:45:02.066Z,4.75
2023-01-30T21:50:01.760Z,4.74
2023-01-30T21:55:01.810Z,4.75
2023-01-30T22:00:01.829Z,4.73
2023-01-30T22:05:02.230Z,4.76
2023-01-30T22:10:01.587Z,4.72
2023-01-30T22:15:01.292Z,4.76
2023-01-30T22:20:01.425Z,4.76
2023-01-30T22:25:01.534Z,4.77
2023-01-30T22:30:01.579Z,4.77
2023-01-30T22:35:01.795Z,4.76
2023-01-30T22:40:02.288Z,4.79
2023-01-30T22:45:02.194Z,4.77
2023-01-30T22:50:01.473Z,4.76
2023-01-30T22:55:01.641Z,4.77
2023-01-30T23:00:01.858Z,4.77
2023-01-30T23:05:02.001Z,4.71
2023-01-30T23:10:01.703Z,4.61
2023-01-30T23:15:01.779Z,4.5
2023-01-30T23:20:01.693Z,4.52
2023-01-30T23:25:01.647Z,4.45
2023-01-30T23:30:01.588Z,4.42
2023-01-30T23:35:01.565Z,4.36
2023-01-30T23:40:01.593Z,4.32
2023-01-30T23:45:01.406Z,4.31
2023-01-30T23:50:01.407Z,4.3
2023-01-30T23:55:01.905Z,4.28
